createdAt,value
2018-01-03T00:00:18.776Z,99.00
2018-01-03T00:02:46.648Z,98.80
2018-01-03T00:05:14.157Z,98.80
2018-01-03T00:07:42.508Z,98.90
2018-01-03T00:10:10.025Z,98.90
2018-01-03T00:12:37.532Z,98.90
2018-01-03T00:15:05.504Z,99.10
2018-01-03T00:17:33.000Z,99.10
2018-01-03T00:20:00.876Z,99.10
2018-01-03T00:22:28.372Z,99.00
2018-01-03T00:24:55.852Z,99.10
2018-01-03T00:27:23.424Z,99.10
2018-01-03T00:29:50.905Z,99.00
2018-01-03T00:32:18.501Z,98.80
2018-01-03T00:34:45.989Z,98.80
2018-01-03T00:37:13.905Z,98.70
2018-01-03T00:39:41.387Z,98.60
2018-01-03T00:42:08.941Z,98.70
2018-01-03T00:44:36.510Z,98.50
2018-01-03T00:47:03.993Z,98.20
2018-01-03T00:49:31.492Z,98.30
2018-01-03T00:51:58.980Z,98.20
2018-01-03T00:54:26.472Z,98.30
2018-01-03T00:56:54.340Z,98.50
2018-01-03T00:59:21.830Z,98.50
2018-01-03T01:01:49.303Z,98.50
2018-01-03T01:04:16.833Z,98.30
2018-01-03T01:06:44.674Z,98.20
2018-01-03T01:09:12.269Z,98.00
2018-01-03T01:11:39.887Z,98.00
2018-01-03T01:14:07.812Z,98.00
2018-01-03T01:16:35.291Z,98.00
2018-01-03T01:19:02.767Z,97.80
2018-01-03T01:21:30.268Z,97.70
2018-01-03T01:23:57.788Z,97.80
2018-01-03T01:26:25.288Z,97.60
2018-01-03T01:28:53.155Z,97.70
2018-01-03T01:31:20.659Z,97.70
2018-01-03T01:33:48.130Z,97.50
2018-01-03T01:36:15.625Z,97.40
2018-01-03T01:38:43.490Z,97.00
2018-01-03T01:41:11.080Z,97.00
2018-01-03T01:43:38.569Z,96.80
2018-01-03T01:46:06.097Z,97.00
2018-01-03T01:48:33.635Z,97.00
2018-01-03T01:51:01.211Z,97.40
2018-01-03T01:53:28.688Z,97.60
2018-01-03T01:55:56.168Z,97.70
2018-01-03T01:58:23.665Z,97.90
2018-01-03T02:00:51.256Z,98.00
2018-01-03T02:03:18.751Z,98.10
2018-01-03T02:05:46.624Z,98.30
2018-01-03T02:08:14.115Z,98.20
2018-01-03T02:10:41.597Z,98.10
2018-01-03T02:13:09.086Z,98.20
2018-01-03T02:15:36.564Z,98.40
2018-01-03T02:18:04.073Z,98.40
2018-01-03T02:20:31.547Z,98.50
2018-01-03T02:22:59.511Z,98.90
2018-01-03T02:25:27.103Z,98.90
2018-01-03T02:27:54.588Z,98.80
2018-01-03T02:30:22.169Z,98.80
2018-01-03T02:32:49.656Z,98.90
2018-01-03T02:35:17.146Z,99.10
2018-01-03T02:37:44.715Z,99.10
2018-01-03T02:40:12.207Z,99.20
2018-01-03T02:42:39.681Z,99.10
2018-01-03T02:45:07.172Z,99.30
2018-01-03T02:47:34.757Z,99.40
2018-01-03T02:50:02.258Z,99.60
2018-01-03T02:52:30.140Z,99.60
2018-01-03T02:54:58.052Z,99.60
2018-01-03T02:57:25.936Z,99.50
2018-01-03T02:59:53.816Z,99.70
2018-01-03T03:02:21.394Z,99.70
2018-01-03T03:04:48.872Z,99.70
2018-01-03T03:07:16.390Z,99.80
2018-01-03T03:09:43.868Z,99.80
2018-01-03T03:12:11.795Z,99.90
2018-01-03T03:14:39.312Z,99.90
2018-01-03T03:17:06.812Z,99.80
2018-01-03T03:19:34.692Z,99.70
2018-01-03T03:22:02.182Z,99.70
2018-01-03T03:24:29.756Z,99.70
2018-01-03T03:26:57.264Z,99.70
2018-01-03T03:29:25.131Z,99.30
2018-01-03T03:31:52.609Z,99.30
2018-01-03T03:34:20.199Z,99.30
2018-01-03T03:36:47.679Z,99.40
2018-01-03T03:39:15.258Z,99.40
2018-01-03T03:41:42.754Z,99.50
2018-01-03T03:44:10.266Z,99.40
2018-01-03T03:46:37.741Z,99.60
2018-01-03T03:49:05.641Z,99.50
2018-01-03T03:51:33.191Z,99.50
2018-01-03T03:54:00.684Z,99.70
2018-01-03T03:56:28.258Z,99.60
2018-01-03T03:58:55.758Z,99.70
2018-01-03T04:01:23.640Z,99.80
2018-01-03T04:03:51.123Z,99.80
2018-01-03T04:06:18.704Z,99.70
2018-01-03T04:08:46.178Z,99.40
2018-01-03T04:11:13.763Z,99.70
2018-01-03T04:13:41.240Z,99.70
2018-01-03T04:16:08.740Z,99.80
2018-01-03T04:18:36.224Z,99.70
2018-01-03T04:21:03.714Z,99.60
2018-01-03T04:23:31.583Z,99.60
2018-01-03T04:25:59.087Z,99.60
2018-01-03T04:28:26.572Z,99.60
2018-01-03T04:30:54.439Z,99.40
2018-01-03T04:33:22.037Z,99.40
2018-01-03T04:35:49.528Z,99.60
2018-01-03T04:38:17.533Z,99.50
2018-01-03T04:40:45.505Z,99.80
2018-01-03T04:43:13.012Z,99.80
2018-01-03T04:45:40.883Z,98.40
2018-01-03T04:48:08.386Z,98.30
2018-01-03T04:50:36.265Z,91.70
2018-01-03T04:53:03.772Z,91.70
2018-01-03T04:55:31.639Z,95.10
2018-01-03T04:57:59.137Z,95.00
2018-01-03T05:00:26.622Z,95.50
2018-01-03T05:02:54.525Z,95.30
2018-01-03T05:05:22.080Z,95.30
2018-01-03T05:07:49.660Z,95.60
2018-01-03T05:10:17.137Z,95.30
2018-01-03T05:12:44.618Z,93.20
2018-01-03T05:15:12.116Z,93.70
2018-01-03T05:17:39.587Z,93.10
2018-01-03T05:20:07.083Z,93.40
2018-01-03T05:22:34.656Z,92.90
2018-01-03T05:25:02.154Z,92.70
2018-01-03T05:27:30.127Z,92.90
2018-01-03T05:29:57.718Z,92.80
2018-01-03T05:32:25.219Z,93.20
2018-01-03T05:34:52.729Z,94.10
2018-01-03T05:37:20.212Z,94.20
2018-01-03T05:39:47.726Z,94.70
2018-01-03T05:42:15.236Z,95.00
2018-01-03T05:44:42.721Z,95.10
2018-01-03T05:47:10.237Z,94.80
2018-01-03T05:49:37.720Z,94.70
2018-01-03T05:52:05.223Z,94.20
2018-01-03T05:54:32.700Z,94.30
2018-01-03T05:57:00.201Z,94.40
2018-01-03T05:59:27.712Z,93.30
2018-01-03T06:01:55.216Z,93.40
2018-01-03T06:04:23.186Z,93.70
2018-01-03T06:06:50.690Z,93.50
2018-01-03T06:09:18.681Z,93.10
2018-01-03T06:11:46.266Z,93.10
2018-01-03T06:14:14.146Z,92.60
2018-01-03T06:16:41.661Z,92.60
2018-01-03T06:19:09.531Z,92.20
2018-01-03T06:21:37.012Z,92.20
2018-01-03T06:24:04.600Z,91.50
2018-01-03T06:26:32.092Z,90.50
2018-01-03T06:28:59.979Z,90.50
2018-01-03T06:31:27.873Z,90.40
2018-01-03T06:33:55.764Z,90.50
2018-01-03T06:36:23.645Z,89.40
2018-01-03T06:38:51.149Z,89.40
2018-01-03T06:41:19.028Z,88.50
2018-01-03T06:43:46.528Z,88.50
2018-01-03T06:46:14.421Z,88.30
2018-01-03T06:48:42.336Z,88.60
2018-01-03T06:51:09.832Z,88.50
2018-01-03T06:53:37.316Z,88.20
2018-01-03T06:56:04.817Z,88.80
2018-01-03T06:58:32.304Z,88.40
2018-01-03T07:00:59.809Z,88.60
2018-01-03T07:03:27.282Z,88.60
2018-01-03T07:05:54.780Z,88.50
2018-01-03T07:08:22.769Z,88.50
2018-01-03T07:10:50.348Z,88.50
2018-01-03T07:13:17.828Z,88.20
2018-01-03T07:15:45.333Z,88.30
2018-01-03T07:18:13.220Z,88.60
2018-01-03T07:20:41.117Z,88.20
2018-01-03T07:23:09.010Z,88.20
2018-01-03T07:25:36.904Z,87.30
2018-01-03T07:28:04.781Z,86.80
2018-01-03T07:30:32.676Z,85.90
2018-01-03T07:33:00.155Z,85.70
2018-01-03T07:35:27.732Z,85.70
2018-01-03T07:37:55.206Z,85.20
2018-01-03T07:40:22.716Z,84.60
2018-01-03T07:42:50.587Z,83.80
2018-01-03T07:45:18.088Z,83.80
2018-01-03T07:47:45.964Z,82.50
2018-01-03T07:50:13.548Z,82.50
2018-01-03T07:52:41.031Z,81.70
2018-01-03T07:55:08.538Z,81.50
2018-01-03T07:57:36.417Z,81.30
2018-01-03T08:00:03.944Z,81.30
2018-01-03T08:02:31.432Z,81.50
2018-01-03T08:04:58.956Z,86.20
2018-01-03T08:07:26.450Z,87.80
2018-01-03T08:09:53.928Z,90.20
2018-01-03T08:12:21.509Z,90.20
2018-01-03T08:14:49.096Z,89.50
2018-01-03T08:17:16.587Z,90.40
2018-01-03T08:19:44.156Z,91.10
2018-01-03T08:22:11.647Z,90.20
2018-01-03T08:24:39.224Z,90.20
2018-01-03T08:27:06.720Z,89.70
2018-01-03T08:29:34.214Z,89.90
2018-01-03T08:32:02.213Z,90.00
2018-01-03T08:34:30.093Z,90.50
2018-01-03T08:36:58.005Z,89.40
2018-01-03T08:39:25.881Z,90.00
2018-01-03T08:41:53.784Z,89.80
2018-01-03T08:44:21.664Z,90.10
2018-01-03T08:46:49.566Z,89.40
2018-01-03T08:49:17.468Z,88.60
2018-01-03T08:51:44.976Z,88.60
2018-01-03T08:54:12.500Z,88.70
2018-01-03T08:56:40.001Z,89.10
2018-01-03T08:59:07.875Z,89.40
2018-01-03T09:01:35.400Z,89.40
2018-01-03T09:04:02.884Z,89.80
2018-01-03T09:06:30.390Z,90.80
2018-01-03T09:08:57.916Z,91.00
2018-01-03T09:11:25.421Z,91.30
2018-01-03T09:13:53.299Z,85.90
2018-01-03T09:16:20.802Z,85.90
2018-01-03T09:18:48.279Z,86.90
2018-01-03T09:21:16.166Z,89.90
2018-01-03T09:23:43.727Z,89.90
2018-01-03T09:26:11.215Z,89.80
2018-01-03T09:28:38.796Z,89.40
2018-01-03T09:31:06.397Z,90.10
2018-01-03T09:33:34.288Z,87.80
2018-01-03T09:36:02.271Z,86.90
2018-01-03T09:38:29.763Z,86.90
2018-01-03T09:40:57.684Z,85.90
2018-01-03T09:43:25.233Z,84.90
2018-01-03T09:45:52.716Z,85.40
2018-01-03T09:48:20.210Z,85.60
2018-01-03T09:50:48.102Z,87.30
2018-01-03T09:53:15.997Z,87.10
2018-01-03T09:55:43.964Z,87.80
2018-01-03T09:58:11.469Z,87.80
2018-01-03T10:00:38.964Z,87.70
2018-01-03T10:03:06.860Z,87.90
2018-01-03T10:05:34.740Z,88.30
2018-01-03T10:08:02.637Z,89.00
2018-01-03T10:10:30.603Z,89.00
2018-01-03T10:12:58.096Z,89.00
2018-01-03T10:15:25.676Z,89.70
2018-01-03T10:17:53.268Z,90.00
2018-01-03T10:20:20.747Z,89.60
2018-01-03T10:22:48.268Z,89.60
2018-01-03T10:25:15.812Z,89.70
2018-01-03T10:27:43.312Z,87.40
2018-01-03T10:30:11.183Z,86.20
2018-01-03T10:32:38.768Z,86.20
2018-01-03T10:35:06.252Z,86.30
2018-01-03T10:37:34.991Z,85.10
2018-01-03T10:40:02.884Z,83.70
2018-01-03T10:42:30.788Z,83.80
2018-01-03T10:44:58.336Z,83.80
2018-01-03T10:47:25.841Z,83.40
2018-01-03T10:49:53.728Z,82.10
2018-01-03T10:52:21.623Z,81.50
2018-01-03T10:54:49.507Z,81.60
2018-01-03T10:57:17.396Z,80.80
2018-01-03T10:59:44.900Z,80.80
2018-01-03T11:02:12.772Z,80.40
2018-01-03T11:04:40.281Z,80.40
2018-01-03T11:07:07.768Z,80.50
2018-01-03T11:09:35.274Z,80.30
2018-01-03T11:12:02.759Z,79.80
2018-01-03T11:14:30.277Z,78.70
2018-01-03T11:16:57.797Z,79.20
2018-01-03T11:19:25.308Z,79.00
2018-01-03T11:21:52.824Z,79.40
2018-01-03T11:24:20.403Z,79.40
2018-01-03T11:26:47.898Z,78.50
2018-01-03T11:29:15.397Z,79.20
2018-01-03T11:31:43.363Z,79.30
2018-01-03T11:34:10.869Z,79.30
2018-01-03T11:36:38.748Z,79.90
2018-01-03T11:39:06.250Z,79.90
2018-01-03T11:41:34.192Z,80.50
2018-01-03T11:44:01.665Z,80.50
2018-01-03T11:46:29.152Z,81.90
2018-01-03T11:48:56.656Z,81.10
2018-01-03T11:51:24.135Z,81.70
2018-01-03T11:53:51.671Z,82.80
2018-01-03T11:56:19.147Z,83.00
2018-01-03T11:58:47.133Z,83.50
2018-01-03T12:01:15.025Z,84.10
2018-01-03T12:03:43.004Z,84.10
2018-01-03T12:06:10.499Z,84.20
2018-01-03T12:08:38.404Z,84.40
2018-01-03T12:11:06.340Z,83.80
2018-01-03T12:13:33.845Z,83.80
2018-01-03T12:16:01.321Z,84.50
2018-01-03T12:18:28.800Z,84.10
2018-01-03T12:20:56.433Z,83.90
2018-01-03T12:23:23.914Z,84.10
2018-01-03T12:25:51.823Z,83.90
2018-01-03T12:28:19.368Z,83.90
2018-01-03T12:30:46.883Z,84.00
2018-01-03T12:33:14.372Z,84.70
2018-01-03T12:35:41.881Z,84.50
2018-01-03T12:38:09.364Z,85.30
2018-01-03T12:40:36.873Z,85.70
2018-01-03T12:43:04.356Z,86.40
2018-01-03T12:45:31.856Z,86.70
2018-01-03T12:47:59.736Z,87.80
2018-01-03T12:50:27.656Z,88.50
2018-01-03T12:52:55.537Z,88.30
2018-01-03T12:55:23.555Z,89.10
2018-01-03T12:57:51.090Z,89.00
2018-01-03T13:00:18.608Z,89.20
2018-01-03T13:02:46.572Z,88.70
2018-01-03T13:05:14.072Z,88.80
2018-01-03T13:07:42.049Z,89.00
2018-01-03T13:10:09.597Z,89.00
2018-01-03T13:12:37.104Z,87.90
2018-01-03T13:15:04.692Z,87.20
2018-01-03T13:17:32.192Z,86.40
2018-01-03T13:19:59.697Z,86.50
2018-01-03T13:22:27.652Z,86.00
2018-01-03T13:24:55.161Z,85.90
2018-01-03T13:27:23.045Z,84.10
2018-01-03T13:29:50.552Z,84.10
2018-01-03T13:32:18.507Z,85.20
2018-01-03T13:34:46.109Z,85.20
2018-01-03T13:37:13.597Z,85.40
2018-01-03T13:39:41.179Z,85.70
2018-01-03T13:42:09.089Z,86.30
2018-01-03T13:44:36.972Z,86.90
2018-01-03T13:47:04.872Z,87.20
2018-01-03T13:49:32.831Z,87.40
2018-01-03T13:52:00.345Z,87.40
2018-01-03T13:54:28.222Z,86.40
2018-01-03T13:56:56.116Z,86.20
2018-01-03T13:59:23.604Z,86.20
2018-01-03T14:01:51.585Z,85.30
2018-01-03T14:04:19.058Z,85.30
2018-01-03T14:06:46.574Z,85.80
2018-01-03T14:09:14.539Z,84.60
2018-01-03T14:11:42.060Z,84.60
2018-01-03T14:14:09.595Z,84.30
2018-01-03T14:16:37.090Z,84.20
2018-01-03T14:19:04.676Z,83.70
2018-01-03T14:21:32.282Z,83.30
2018-01-03T14:24:00.156Z,83.10
2018-01-03T14:26:27.652Z,83.10
2018-01-03T14:28:55.536Z,83.90
2018-01-03T14:31:23.127Z,83.90
2018-01-03T14:33:50.609Z,84.30
2018-01-03T14:36:18.109Z,84.90
2018-01-03T14:38:45.990Z,85.70
2018-01-03T14:41:13.908Z,86.50
2018-01-03T14:43:41.451Z,86.50
2018-01-03T14:46:09.036Z,87.00
2018-01-03T14:48:36.625Z,87.10
2018-01-03T14:51:04.137Z,87.50
2018-01-03T14:53:31.666Z,87.50
2018-01-03T14:55:59.159Z,87.10
2018-01-03T14:58:26.694Z,86.80
2018-01-03T15:00:54.265Z,86.70
2018-01-03T15:03:22.149Z,85.90
2018-01-03T15:05:49.652Z,85.90
2018-01-03T15:08:17.164Z,85.50
2018-01-03T15:10:44.649Z,85.50
2018-01-03T15:13:12.148Z,85.60
2018-01-03T15:15:39.626Z,85.30
2018-01-03T15:18:07.128Z,85.40
2018-01-03T15:20:34.608Z,85.70
2018-01-03T15:23:02.122Z,85.50
2018-01-03T15:25:29.996Z,86.40
2018-01-03T15:27:57.487Z,86.40
2018-01-03T15:30:25.365Z,87.00
2018-01-03T15:32:52.855Z,87.00
2018-01-03T15:35:20.338Z,87.90
2018-01-03T15:37:48.265Z,89.30
2018-01-03T15:40:15.840Z,89.30
2018-01-03T15:42:43.736Z,89.40
2018-01-03T15:45:11.284Z,89.40
2018-01-03T15:47:38.792Z,89.60
2018-01-03T15:50:06.308Z,89.40
2018-01-03T15:52:33.808Z,89.10
2018-01-03T15:55:01.293Z,89.20
2018-01-03T15:57:28.787Z,88.70
2018-01-03T15:59:56.267Z,88.60
2018-01-03T16:02:23.867Z,88.70
2018-01-03T16:04:51.348Z,88.60
2018-01-03T16:07:18.843Z,88.90
2018-01-03T16:09:46.346Z,89.10
2018-01-03T16:12:13.844Z,89.30
2018-01-03T16:14:41.329Z,89.50
2018-01-03T16:17:08.855Z,89.30
2018-01-03T16:19:36.448Z,89.50
2018-01-03T16:22:03.949Z,89.40
2018-01-03T16:24:31.951Z,88.40
2018-01-03T16:26:59.876Z,88.40
2018-01-03T16:29:27.432Z,88.50
2018-01-03T16:31:55.340Z,88.90
2018-01-03T16:34:22.881Z,88.90
2018-01-03T16:36:50.354Z,90.00
2018-01-03T16:39:17.884Z,90.50
2018-01-03T16:41:45.368Z,90.70
2018-01-03T16:44:12.896Z,90.80
2018-01-03T16:46:40.396Z,91.10
2018-01-03T16:49:07.976Z,90.90
2018-01-03T16:51:41.283Z,91.10
2018-01-03T16:54:08.824Z,90.70
2018-01-03T16:56:36.312Z,90.50
2018-01-03T16:59:03.865Z,90.60
2018-01-03T17:01:31.740Z,92.00
2018-01-03T17:03:59.290Z,92.00
2018-01-03T17:06:26.780Z,92.60
2018-01-03T17:08:54.278Z,93.20
2018-01-03T17:11:21.768Z,93.20
2018-01-03T17:13:49.388Z,93.10
2018-01-03T17:16:17.269Z,92.70
2018-01-03T17:18:45.179Z,92.30
2018-01-03T17:21:12.660Z,92.30
2018-01-03T17:23:40.724Z,90.70
2018-01-03T17:26:08.302Z,90.60
2018-01-03T17:28:35.835Z,90.20
2018-01-03T17:31:03.324Z,89.90
2018-01-03T17:33:30.985Z,89.30
2018-01-03T17:35:58.859Z,88.50
2018-01-03T17:38:26.443Z,88.50
2018-01-03T17:40:54.037Z,88.10
2018-01-03T17:43:21.560Z,87.70
2018-01-03T17:45:49.236Z,87.80
2018-01-03T17:48:16.745Z,88.30
2018-01-03T17:50:44.228Z,88.50
2018-01-03T17:53:11.733Z,88.20
2018-01-03T17:55:39.228Z,88.50
2018-01-03T17:58:06.721Z,88.30
2018-01-03T18:00:34.247Z,88.30
2018-01-03T18:03:01.734Z,88.00
2018-01-03T18:05:29.246Z,88.40
2018-01-03T18:07:56.738Z,88.90
2018-01-03T18:10:24.332Z,89.60
2018-01-03T18:12:51.817Z,89.70
2018-01-03T18:15:19.324Z,90.50
2018-01-03T18:17:47.212Z,91.20
2018-01-03T18:20:15.103Z,91.50
2018-01-03T18:22:42.979Z,91.50
2018-01-03T18:25:10.557Z,91.50
2018-01-03T18:27:38.041Z,90.80
2018-01-03T18:30:05.546Z,90.30
2018-01-03T18:32:33.433Z,90.70
2018-01-03T18:35:01.329Z,90.90
2018-01-03T18:37:29.207Z,90.70
2018-01-03T18:39:56.717Z,90.60
2018-01-03T18:42:24.268Z,90.70
2018-01-03T18:44:51.856Z,90.50
2018-01-03T18:47:19.335Z,90.10
2018-01-03T18:49:46.830Z,90.00
2018-01-03T18:52:14.716Z,89.80
2018-01-03T18:54:42.301Z,89.80
2018-01-03T18:57:09.784Z,89.80
2018-01-03T18:59:37.368Z,89.90
2018-01-03T19:02:04.857Z,90.00
2018-01-03T19:04:32.751Z,90.00
2018-01-03T19:07:00.633Z,90.40
2018-01-03T19:09:28.141Z,90.40
2018-01-03T19:11:55.628Z,90.00
2018-01-03T19:14:23.173Z,89.90
2018-01-03T19:16:50.647Z,89.30
2018-01-03T19:19:18.210Z,89.40
2018-01-03T19:21:45.737Z,89.20
2018-01-03T19:24:13.607Z,88.40
2018-01-03T19:26:41.098Z,88.40
2018-01-03T19:29:08.583Z,88.10
2018-01-03T19:31:36.084Z,88.00
2018-01-03T19:34:03.600Z,87.20
2018-01-03T19:36:31.153Z,87.00
2018-01-03T19:38:59.023Z,86.70
2018-01-03T19:41:26.568Z,86.70
2018-01-03T19:43:54.043Z,87.80
2018-01-03T19:46:21.548Z,89.90
2018-01-03T19:48:49.032Z,90.70
2018-01-03T19:51:16.522Z,91.90
2018-01-03T19:53:44.011Z,92.40
2018-01-03T19:56:11.507Z,92.50
2018-01-03T19:58:39.124Z,92.70
2018-01-03T20:01:06.624Z,92.80
2018-01-03T20:03:34.113Z,93.60
2018-01-03T20:06:01.620Z,93.10
2018-01-03T20:08:29.108Z,93.70
2018-01-03T20:10:56.608Z,93.60
2018-01-03T20:13:24.188Z,94.20
2018-01-03T20:15:51.693Z,94.30
2018-01-03T20:18:19.588Z,95.70
2018-01-03T20:20:47.488Z,95.40
2018-01-03T20:23:15.359Z,95.40
2018-01-03T20:25:42.855Z,95.40
2018-01-03T20:28:10.823Z,95.20
2018-01-03T20:30:38.319Z,95.10
2018-01-03T20:33:06.299Z,94.00
2018-01-03T20:35:33.801Z,94.00
2018-01-03T20:38:01.675Z,92.40
2018-01-03T20:40:29.291Z,92.40
2018-01-03T20:42:57.255Z,92.90
2018-01-03T20:45:24.731Z,92.90
2018-01-03T20:47:52.323Z,92.20
2018-01-03T20:50:19.794Z,91.80
2018-01-03T20:52:47.287Z,91.80
2018-01-03T20:55:14.777Z,91.50
2018-01-03T20:57:42.270Z,91.60
2018-01-03T21:00:10.145Z,91.60
2018-01-03T21:02:37.727Z,91.60
2018-01-03T21:05:05.231Z,91.90
2018-01-03T21:07:33.148Z,91.10
2018-01-03T21:10:00.699Z,91.10
2018-01-03T21:12:28.199Z,90.80
2018-01-03T21:14:56.092Z,90.40
2018-01-03T21:17:23.979Z,90.50
2018-01-03T21:19:51.860Z,89.80
2018-01-03T21:22:19.360Z,89.80
2018-01-03T21:24:47.331Z,91.20
2018-01-03T21:27:14.849Z,91.20
2018-01-03T21:29:42.332Z,91.80
2018-01-03T21:32:09.826Z,92.60
2018-01-03T21:34:37.364Z,92.60
2018-01-03T21:37:04.856Z,93.20
2018-01-03T21:39:32.733Z,94.20
2018-01-03T21:42:00.212Z,94.20
2018-01-03T21:44:27.711Z,94.20
2018-01-03T21:46:55.313Z,94.30
2018-01-03T21:49:23.212Z,95.10
2018-01-03T21:51:51.092Z,95.10
2018-01-03T21:54:18.991Z,95.20
2018-01-03T21:56:46.868Z,94.90
2018-01-03T21:59:14.373Z,94.90
2018-01-03T22:01:42.248Z,94.90
2018-01-03T22:04:10.140Z,94.70
2018-01-03T22:06:38.024Z,94.90
2018-01-03T22:09:05.541Z,94.80
2018-01-03T22:11:33.074Z,93.80
2018-01-03T22:14:00.576Z,93.50
2018-01-03T22:16:28.152Z,93.30
2018-01-03T22:18:55.631Z,92.90
2018-01-03T22:21:23.127Z,92.80
2018-01-03T22:23:50.699Z,93.10
2018-01-03T22:26:18.287Z,92.30
2018-01-03T22:28:45.764Z,91.80
2018-01-03T22:31:13.264Z,91.30
2018-01-03T22:33:40.739Z,90.40
2018-01-03T22:36:08.244Z,90.40
2018-01-03T22:38:36.128Z,90.40
2018-01-03T22:41:04.032Z,89.30
2018-01-03T22:43:31.908Z,89.30
2018-01-03T22:45:59.409Z,89.30
2018-01-03T22:48:27.325Z,88.80
2018-01-03T22:50:54.878Z,88.90
2018-01-03T22:53:22.339Z,88.40
2018-01-03T22:55:49.824Z,88.40
2018-01-03T22:58:17.363Z,88.90
2018-01-03T23:00:44.888Z,88.20
2018-01-03T23:03:12.388Z,88.40
2018-01-03T23:05:40.368Z,87.80
2018-01-03T23:08:07.949Z,87.80
2018-01-03T23:10:35.437Z,87.50
2018-01-03T23:13:03.011Z,88.00
2018-01-03T23:15:30.496Z,88.10
2018-01-03T23:17:58.093Z,88.10
2018-01-03T23:20:25.571Z,87.40
2018-01-03T23:22:53.067Z,87.90
2018-01-03T23:25:21.066Z,87.40
2018-01-03T23:27:48.980Z,87.60
2018-01-03T23:30:16.462Z,87.60
2018-01-03T23:32:43.936Z,87.20
2018-01-03T23:35:11.832Z,87.70
2018-01-03T23:37:39.489Z,87.70
2018-01-03T23:40:07.071Z,87.60
2018-01-03T23:42:34.547Z,87.60
2018-01-03T23:45:02.132Z,87.40
2018-01-03T23:47:29.611Z,87.30
2018-01-03T23:49:57.120Z,87.40
2018-01-03T23:52:25.005Z,87.10
2018-01-03T23:54:52.517Z,87.10
2018-01-03T23:57:20.008Z,87.40
2018-01-03T23:59:47.548Z,87.40
